sensor_id;sensor_type;location;lat;lon;timestamp;pressure;altitude;pressure_sealevel;temperature;humidity
40384;BME280;26097;42.366;23.818;2023-05-16T00:02:47;93841.50;;;10.19;100.00
40384;BME280;26097;42.366;23.818;2023-05-16T00:05:47;93847.56;;;10.19;100.00
40384;BME280;26097;42.366;23.818;2023-05-16T00:08:48;93837.84;;;10.10;100.00
40384;BME280;26097;42.366;23.818;2023-05-16T00:11:49;93847.44;;;10.09;100.00
40384;BME280;26097;42.366;23.818;2023-05-16T00:14:49;93844.94;;;10.08;100.00
40384;BME280;26097;42.366;23.818;2023-05-16T00:17:51;93828.75;;;10.04;100.00
40384;BME280;26097;42.366;23.818;2023-05-16T00:20:51;93845.31;;;10.14;100.00
40384;BME280;26097;42.366;23.818;2023-05-16T00:23:53;93837.69;;;10.34;100.00
40384;BME280;26097;42.366;23.818;2023-05-16T00:26:54;93826.59;;;10.43;100.00
40384;BME280;26097;42.366;23.818;2023-05-16T00:29:54;93836.28;;;10.41;100.00
40384;BME280;26097;42.366;23.818;2023-05-16T00:32:55;93827.06;;;10.26;100.00
40384;BME280;26097;42.366;23.818;2023-05-16T00:35:55;93839.84;;;10.29;100.00
40384;BME280;26097;42.366;23.818;2023-05-16T00:38:56;93839.38;;;10.24;100.00
40384;BME280;26097;42.366;23.818;2023-05-16T00:41:56;93830.03;;;10.21;100.00
40384;BME280;26097;42.366;23.818;2023-05-16T00:44:57;93827.88;;;10.26;100.00
40384;BME280;26097;42.366;23.818;2023-05-16T00:47:57;93828.81;;;10.37;100.00
40384;BME280;26097;42.366;23.818;2023-05-16T00:50:58;93815.94;;;10.24;100.00
40384;BME280;26097;42.366;23.818;2023-05-16T00:53:59;93819.00;;;10.18;100.00
40384;BME280;26097;42.366;23.818;2023-05-16T00:56:59;93810.25;;;10.19;100.00
40384;BME280;26097;42.366;23.818;2023-05-16T01:00:00;93817.34;;;10.28;100.00
40384;BME280;26097;42.366;23.818;2023-05-16T01:03:01;93798.88;;;10.31;100.00
40384;BME280;26097;42.366;23.818;2023-05-16T01:06:01;93801.13;;;10.24;100.00
40384;BME280;26097;42.366;23.818;2023-05-16T01:09:01;93807.41;;;10.22;100.00
40384;BME280;26097;42.366;23.818;2023-05-16T01:15:17;93805.47;;;10.35;100.00
40384;BME280;26097;42.366;23.818;2023-05-16T01:21:48;93805.50;;;10.47;100.00
40384;BME280;26097;42.366;23.818;2023-05-16T01:25:04;93808.81;;;10.49;100.00
40384;BME280;26097;42.366;23.818;2023-05-16T01:28:06;93808.19;;;10.56;100.00
40384;BME280;26097;42.366;23.818;2023-05-16T01:31:06;93808.19;;;10.56;100.00
40384;BME280;26097;42.366;23.818;2023-05-16T01:34:07;93808.31;;;10.55;100.00
40384;BME280;26097;42.366;23.818;2023-05-16T01:40:29;93800.75;;;10.52;100.00
40384;BME280;26097;42.366;23.818;2023-05-16T01:43:33;93798.59;;;10.57;100.00
40384;BME280;26097;42.366;23.818;2023-05-16T01:46:37;93803.53;;;10.60;100.00
40384;BME280;26097;42.366;23.818;2023-05-16T01:50:00;93803.06;;;10.66;100.00
40384;BME280;26097;42.366;23.818;2023-05-16T01:53:10;93798.56;;;10.68;100.00
40384;BME280;26097;42.366;23.818;2023-05-16T01:56:15;93782.69;;;10.60;100.00
40384;BME280;26097;42.366;23.818;2023-05-16T01:59:16;93777.47;;;10.60;100.00
40384;BME280;26097;42.366;23.818;2023-05-16T02:02:18;93775.00;;;10.59;100.00
40384;BME280;26097;42.366;23.818;2023-05-16T02:05:18;93767.56;;;10.54;100.00
40384;BME280;26097;42.366;23.818;2023-05-16T02:08:19;93772.78;;;10.54;100.00
40384;BME280;26097;42.366;23.818;2023-05-16T02:11:19;93776.44;;;10.51;100.00
40384;BME280;26097;42.366;23.818;2023-05-16T02:14:20;93781.53;;;10.53;100.00
40384;BME280;26097;42.366;23.818;2023-05-16T02:17:20;93765.09;;;10.52;100.00
40384;BME280;26097;42.366;23.818;2023-05-16T02:20:21;93771.13;;;10.53;100.00
40384;BME280;26097;42.366;23.818;2023-05-16T02:23:21;93763.75;;;10.58;100.00
40384;BME280;26097;42.366;23.818;2023-05-16T02:26:21;93764.06;;;10.65;100.00
40384;BME280;26097;42.366;23.818;2023-05-16T02:29:23;93775.69;;;10.72;100.00
40384;BME280;26097;42.366;23.818;2023-05-16T02:32:23;93769.00;;;10.79;100.00
40384;BME280;26097;42.366;23.818;2023-05-16T02:35:24;93770.28;;;10.85;100.00
40384;BME280;26097;42.366;23.818;2023-05-16T02:38:24;93777.16;;;10.86;100.00
40384;BME280;26097;42.366;23.818;2023-05-16T02:41:25;93768.38;;;10.87;100.00
40384;BME280;26097;42.366;23.818;2023-05-16T02:44:25;93773.84;;;10.84;100.00
40384;BME280;26097;42.366;23.818;2023-05-16T02:47:26;93769.31;;;10.86;100.00
40384;BME280;26097;42.366;23.818;2023-05-16T02:50:26;93776.63;;;10.92;100.00
40384;BME280;26097;42.366;23.818;2023-05-16T02:53:27;93773.66;;;10.97;100.00
40384;BME280;26097;42.366;23.818;2023-05-16T02:56:27;93775.06;;;11.01;100.00
40384;BME280;26097;42.366;23.818;2023-05-16T02:59:27;93781.53;;;11.07;100.00
40384;BME280;26097;42.366;23.818;2023-05-16T03:02:28;93772.75;;;11.08;100.00
40384;BME280;26097;42.366;23.818;2023-05-16T03:05:28;93773.47;;;11.10;100.00
40384;BME280;26097;42.366;23.818;2023-05-16T03:08:28;93776.31;;;11.07;100.00
40384;BME280;26097;42.366;23.818;2023-05-16T03:11:29;93780.59;;;11.08;100.00
40384;BME280;26097;42.366;23.818;2023-05-16T03:14:29;93780.31;;;11.11;100.00
40384;BME280;26097;42.366;23.818;2023-05-16T03:17:30;93777.59;;;11.12;100.00
40384;BME280;26097;42.366;23.818;2023-05-16T03:20:30;93781.03;;;11.13;100.00
40384;BME280;26097;42.366;23.818;2023-05-16T03:23:31;93779.00;;;11.17;100.00
40384;BME280;26097;42.366;23.818;2023-05-16T03:26:31;93782.69;;;11.14;100.00
40384;BME280;26097;42.366;23.818;2023-05-16T03:29:32;93777.19;;;11.17;100.00
40384;BME280;26097;42.366;23.818;2023-05-16T03:32:32;93777.78;;;11.21;100.00
40384;BME280;26097;42.366;23.818;2023-05-16T03:35:34;93780.97;;;11.24;100.00
40384;BME280;26097;42.366;23.818;2023-05-16T03:38:35;93777.41;;;11.25;100.00
40384;BME280;26097;42.366;23.818;2023-05-16T03:41:36;93772.88;;;11.27;100.00
40384;BME280;26097;42.366;23.818;2023-05-16T03:44:36;93767.78;;;11.26;100.00
40384;BME280;26097;42.366;23.818;2023-05-16T03:47:37;93765.31;;;11.24;100.00
40384;BME280;26097;42.366;23.818;2023-05-16T03:50:37;93773.84;;;11.26;100.00
40384;BME280;26097;42.366;23.818;2023-05-16T03:53:37;93770.28;;;11.27;100.00
40384;BME280;26097;42.366;23.818;2023-05-16T03:56:38;93761.50;;;11.28;100.00
40384;BME280;26097;42.366;23.818;2023-05-16T03:59:38;93765.16;;;11.26;100.00
40384;BME280;26097;42.366;23.818;2023-05-16T04:02:39;93764.53;;;11.34;100.00
40384;BME280;26097;42.366;23.818;2023-05-16T04:05:39;93766.75;;;11.38;100.00
40384;BME280;26097;42.366;23.818;2023-05-16T04:08:40;93759.03;;;11.37;100.00
40384;BME280;26097;42.366;23.818;2023-05-16T04:11:42;93769.25;;;11.40;100.00
40384;BME280;26097;42.366;23.818;2023-05-16T04:14:43;93776.81;;;11.43;100.00
40384;BME280;26097;42.366;23.818;2023-05-16T04:17:43;93781.06;;;11.44;100.00
40384;BME280;26097;42.366;23.818;2023-05-16T04:20:44;93789.59;;;11.46;100.00
40384;BME280;26097;42.366;23.818;2023-05-16T04:23:46;93794.94;;;11.45;100.00
40384;BME280;26097;42.366;23.818;2023-05-16T04:26:47;93792.63;;;11.51;100.00
40384;BME280;26097;42.366;23.818;2023-05-16T04:29:47;93795.41;;;11.50;100.00
40384;BME280;26097;42.366;23.818;2023-05-16T04:32:48;93794.03;;;11.55;100.00
40384;BME280;26097;42.366;23.818;2023-05-16T04:35:48;93795.69;;;11.56;100.00
40384;BME280;26097;42.366;23.818;2023-05-16T04:38:49;93789.50;;;11.57;100.00
40384;BME280;26097;42.366;23.818;2023-05-16T04:41:50;93791.03;;;11.60;100.00
40384;BME280;26097;42.366;23.818;2023-05-16T04:44:51;93795.63;;;11.68;100.00
40384;BME280;26097;42.366;23.818;2023-05-16T04:47:51;93788.47;;;11.70;100.00
40384;BME280;26097;42.366;23.818;2023-05-16T04:50:52;93776.81;;;11.74;100.00
40384;BME280;26097;42.366;23.818;2023-05-16T04:53:52;93782.31;;;11.81;100.00
40384;BME280;26097;42.366;23.818;2023-05-16T04:56:53;93801.44;;;11.81;100.00
40384;BME280;26097;42.366;23.818;2023-05-16T04:59:53;93795.28;;;11.82;100.00
40384;BME280;26097;42.366;23.818;2023-05-16T05:02:53;93786.47;;;11.83;100.00
40384;BME280;26097;42.366;23.818;2023-05-16T05:05:54;93783.88;;;11.83;100.00
40384;BME280;26097;42.366;23.818;2023-05-16T05:08:54;93787.59;;;11.91;100.00
40384;BME280;26097;42.366;23.818;2023-05-16T05:11:55;93790.88;;;11.93;100.00
40384;BME280;26097;42.366;23.818;2023-05-16T05:14:55;93792.28;;;11.97;100.00
40384;BME280;26097;42.366;23.818;2023-05-16T05:17:55;93797.75;;;11.94;100.00
40384;BME280;26097;42.366;23.818;2023-05-16T05:20:56;93803.13;;;11.92;100.00
40384;BME280;26097;42.366;23.818;2023-05-16T05:23:57;93792.25;;;11.87;100.00
40384;BME280;26097;42.366;23.818;2023-05-16T05:26:57;93788.66;;;11.88;100.00
40384;BME280;26097;42.366;23.818;2023-05-16T05:29:58;93789.50;;;11.89;100.00
40384;BME280;26097;42.366;23.818;2023-05-16T05:32:58;93789.50;;;11.89;100.00
40384;BME280;26097;42.366;23.818;2023-05-16T05:35:58;93793.78;;;11.90;100.00
40384;BME280;26097;42.366;23.818;2023-05-16T05:38:59;93785.81;;;11.91;100.00
40384;BME280;26097;42.366;23.818;2023-05-16T05:42:00;93792.03;;;12.00;100.00
40384;BME280;26097;42.366;23.818;2023-05-16T05:45:03;93787.88;;;11.97;100.00
40384;BME280;26097;42.366;23.818;2023-05-16T05:48:03;93778.47;;;12.06;100.00
40384;BME280;26097;42.366;23.818;2023-05-16T05:51:04;93783.41;;;12.09;100.00
40384;BME280;26097;42.366;23.818;2023-05-16T05:54:04;93779.03;;;12.10;100.00
40384;BME280;26097;42.366;23.818;2023-05-16T05:57:05;93765.41;;;12.06;100.00
40384;BME280;26097;42.366;23.818;2023-05-16T06:00:06;93763.75;;;12.05;100.00
40384;BME280;26097;42.366;23.818;2023-05-16T06:03:06;93776.94;;;12.04;100.00
40384;BME280;26097;42.366;23.818;2023-05-16T06:06:07;93766.38;;;12.05;100.00
40384;BME280;26097;42.366;23.818;2023-05-16T06:09:08;93776.38;;;12.00;100.00
40384;BME280;26097;42.366;23.818;2023-05-16T06:12:09;93780.66;;;12.01;100.00
40384;BME280;26097;42.366;23.818;2023-05-16T06:15:09;93782.47;;;12.10;100.00
40384;BME280;26097;42.366;23.818;2023-05-16T06:18:10;93794.00;;;12.18;100.00
40384;BME280;26097;42.366;23.818;2023-05-16T06:21:10;93787.97;;;12.17;100.00
40384;BME280;26097;42.366;23.818;2023-05-16T06:24:11;93787.13;;;12.17;100.00
40384;BME280;26097;42.366;23.818;2023-05-16T06:27:11;93790.19;;;12.12;100.00
40384;BME280;26097;42.366;23.818;2023-05-16T06:30:12;93781.91;;;12.17;100.00
40384;BME280;26097;42.366;23.818;2023-05-16T06:33:13;93776.97;;;12.13;100.00
40384;BME280;26097;42.366;23.818;2023-05-16T06:36:14;93796.22;;;12.12;100.00
40384;BME280;26097;42.366;23.818;2023-05-16T06:39:15;93801.72;;;12.09;100.00
40384;BME280;26097;42.366;23.818;2023-05-16T06:42:15;93798.13;;;12.10;100.00
40384;BME280;26097;42.366;23.818;2023-05-16T06:45:16;93785.25;;;12.19;100.00
40384;BME280;26097;42.366;23.818;2023-05-16T06:48:17;93802.03;;;12.26;100.00
40384;BME280;26097;42.366;23.818;2023-05-16T06:51:18;93795.97;;;12.25;100.00
40384;BME280;26097;42.366;23.818;2023-05-16T06:54:18;93795.84;;;12.27;100.00
40384;BME280;26097;42.366;23.818;2023-05-16T06:57:19;93799.13;;;12.29;100.00
40384;BME280;26097;42.366;23.818;2023-05-16T07:00:20;93784.16;;;12.31;100.00
40384;BME280;26097;42.366;23.818;2023-05-16T07:03:20;93776.75;;;12.46;100.00
40384;BME280;26097;42.366;23.818;2023-05-16T07:06:21;93769.88;;;12.55;100.00
40384;BME280;26097;42.366;23.818;2023-05-16T07:09:21;93763.00;;;12.74;100.00
40384;BME280;26097;42.366;23.818;2023-05-16T07:12:21;93768.50;;;12.90;100.00
40384;BME280;26097;42.366;23.818;2023-05-16T07:15:22;93773.16;;;12.96;100.00
40384;BME280;26097;42.366;23.818;2023-05-16T07:18:22;93787.75;;;13.09;100.00
40384;BME280;26097;42.366;23.818;2023-05-16T07:21:23;93778.53;;;13.24;100.00
40384;BME280;26097;42.366;23.818;2023-05-16T07:24:24;93771.47;;;13.35;100.00
40384;BME280;26097;42.366;23.818;2023-05-16T07:27:24;93770.66;;;13.44;100.00
40384;BME280;26097;42.366;23.818;2023-05-16T07:30:25;93776.97;;;13.32;100.00
40384;BME280;26097;42.366;23.818;2023-05-16T07:33:25;93778.63;;;13.33;100.00
40384;BME280;26097;42.366;23.818;2023-05-16T07:36:26;93778.63;;;13.33;100.00
40384;BME280;26097;42.366;23.818;2023-05-16T07:39:26;93760.28;;;13.52;100.00
40384;BME280;26097;42.366;23.818;2023-05-16T07:42:27;93759.25;;;13.73;100.00
40384;BME280;26097;42.366;23.818;2023-05-16T07:45:28;93751.22;;;13.84;100.00
40384;BME280;26097;42.366;23.818;2023-05-16T07:48:28;93748.50;;;13.76;100.00
40384;BME280;26097;42.366;23.818;2023-05-16T07:51:28;93741.03;;;13.81;100.00
40384;BME280;26097;42.366;23.818;2023-05-16T07:54:29;93737.13;;;14.13;100.00
40384;BME280;26097;42.366;23.818;2023-05-16T07:57:30;93746.25;;;14.74;100.00
40384;BME280;26097;42.366;23.818;2023-05-16T08:00:31;93731.34;;;14.92;100.00
40384;BME280;26097;42.366;23.818;2023-05-16T08:03:31;93720.44;;;15.32;100.00
40384;BME280;26097;42.366;23.818;2023-05-16T08:06:32;93727.28;;;15.77;100.00
40384;BME280;26097;42.366;23.818;2023-05-16T08:09:34;93716.22;;;16.00;100.00
40384;BME280;26097;42.366;23.818;2023-05-16T08:12:34;93722.13;;;16.70;100.00
40384;BME280;26097;42.366;23.818;2023-05-16T08:15:34;93712.75;;;16.84;100.00
40384;BME280;26097;42.366;23.818;2023-05-16T08:18:35;93715.38;;;16.59;100.00
40384;BME280;26097;42.366;23.818;2023-05-16T08:21:35;93723.75;;;16.54;100.00
40384;BME280;26097;42.366;23.818;2023-05-16T08:24:36;93724.88;;;16.35;100.00
40384;BME280;26097;42.366;23.818;2023-05-16T08:27:36;93713.88;;;16.48;100.00
40384;BME280;26097;42.366;23.818;2023-05-16T08:30:36;93708.97;;;16.62;100.00
40384;BME280;26097;42.366;23.818;2023-05-16T08:33:37;93718.00;;;16.67;100.00
40384;BME280;26097;42.366;23.818;2023-05-16T08:36:37;93721.69;;;16.99;100.00
40384;BME280;26097;42.366;23.818;2023-05-16T08:39:38;93722.31;;;17.35;100.00
40384;BME280;26097;42.366;23.818;2023-05-16T08:42:38;93720.72;;;17.82;100.00
40384;BME280;26097;42.366;23.818;2023-05-16T08:45:39;93728.06;;;18.03;100.00
40384;BME280;26097;42.366;23.818;2023-05-16T08:48:42;93727.97;;;17.72;100.00
40384;BME280;26097;42.366;23.818;2023-05-16T08:51:46;93723.81;;;17.21;100.00
40384;BME280;26097;42.366;23.818;2023-05-16T08:54:49;93719.50;;;17.45;100.00
40384;BME280;26097;42.366;23.818;2023-05-16T08:57:50;93713.81;;;17.73;100.00
40384;BME280;26097;42.366;23.818;2023-05-16T09:00:51;93723.56;;;17.64;100.00
40384;BME280;26097;42.366;23.818;2023-05-16T09:03:52;93719.97;;;17.56;100.00
40384;BME280;26097;42.366;23.818;2023-05-16T09:06:53;93704.91;;;17.82;100.00
40384;BME280;26097;42.366;23.818;2023-05-16T09:09:53;93697.06;;;18.37;100.00
40384;BME280;26097;42.366;23.818;2023-05-16T09:12:53;93716.72;;;18.03;100.00
40384;BME280;26097;42.366;23.818;2023-05-16T09:16:14;93716.84;;;18.01;100.00
40384;BME280;26097;42.366;23.818;2023-05-16T09:19:15;93712.75;;;17.98;100.00
40384;BME280;26097;42.366;23.818;2023-05-16T09:22:17;93724.84;;;17.76;100.00
40384;BME280;26097;42.366;23.818;2023-05-16T09:25:18;93716.59;;;17.79;100.00
40384;BME280;26097;42.366;23.818;2023-05-16T09:28:18;93705.69;;;17.91;100.00
40384;BME280;26097;42.366;23.818;2023-05-16T09:34:21;93713.03;;;18.12;100.00
40384;BME280;26097;42.366;23.818;2023-05-16T09:37:21;93718.78;;;18.16;100.00
40384;BME280;26097;42.366;23.818;2023-05-16T09:40:22;93724.63;;;18.03;100.00
40384;BME280;26097;42.366;23.818;2023-05-16T09:43:25;93713.94;;;18.27;100.00
40384;BME280;26097;42.366;23.818;2023-05-16T09:46:26;93713.16;;;18.74;100.00
40384;BME280;26097;42.366;23.818;2023-05-16T09:49:27;93711.06;;;18.92;100.00
40384;BME280;26097;42.366;23.818;2023-05-16T09:52:28;93718.00;;;19.17;100.00
40384;BME280;26097;42.366;23.818;2023-05-16T09:55:29;93725.94;;;19.32;100.00
40384;BME280;26097;42.366;23.818;2023-05-16T09:58:31;93715.06;;;18.88;100.00
40384;BME280;26097;42.366;23.818;2023-05-16T10:01:32;93712.94;;;18.60;100.00
40384;BME280;26097;42.366;23.818;2023-05-16T10:04:35;93705.13;;;19.13;100.00
40384;BME280;26097;42.366;23.818;2023-05-16T10:07:36;93702.44;;;19.52;100.00
40384;BME280;26097;42.366;23.818;2023-05-16T10:10:39;93694.16;;;19.55;100.00
40384;BME280;26097;42.366;23.818;2023-05-16T10:13:39;93672.72;;;19.65;100.00
40384;BME280;26097;42.366;23.818;2023-05-16T10:16:42;93655.22;;;19.64;100.00
40384;BME280;26097;42.366;23.818;2023-05-16T10:19:44;93647.72;;;20.12;100.00
40384;BME280;26097;42.366;23.818;2023-05-16T10:22:45;93663.22;;;20.16;100.00
40384;BME280;26097;42.366;23.818;2023-05-16T10:25:47;93671.28;;;19.92;100.00
40384;BME280;26097;42.366;23.818;2023-05-16T10:28:48;93666.63;;;19.79;100.00
40384;BME280;26097;42.366;23.818;2023-05-16T10:31:49;93679.38;;;19.46;100.00
40384;BME280;26097;42.366;23.818;2023-05-16T10:34:51;93664.81;;;18.96;100.00
40384;BME280;26097;42.366;23.818;2023-05-16T10:37:52;93671.03;;;19.04;100.00
40384;BME280;26097;42.366;23.818;2023-05-16T10:40:53;93675.25;;;18.66;100.00
40384;BME280;26097;42.366;23.818;2023-05-16T10:43:56;93671.13;;;18.17;100.00
40384;BME280;26097;42.366;23.818;2023-05-16T10:46:57;93666.41;;;18.04;100.00
40384;BME280;26097;42.366;23.818;2023-05-16T10:49:58;93656.38;;;18.31;100.00
40384;BME280;26097;42.366;23.818;2023-05-16T10:53:24;93654.28;;;18.50;100.00
40384;BME280;26097;42.366;23.818;2023-05-16T10:56:28;93659.09;;;18.69;100.00
40384;BME280;26097;42.366;23.818;2023-05-16T10:59:28;93655.13;;;19.12;100.00
40384;BME280;26097;42.366;23.818;2023-05-16T11:02:30;93648.94;;;19.50;100.00
40384;BME280;26097;42.366;23.818;2023-05-16T11:05:32;93660.06;;;19.30;100.00
40384;BME280;26097;42.366;23.818;2023-05-16T11:08:33;93659.41;;;19.13;100.00
40384;BME280;26097;42.366;23.818;2023-05-16T11:14:53;93655.06;;;18.97;100.00
40384;BME280;26097;42.366;23.818;2023-05-16T11:18:13;93656.31;;;18.39;100.00
40384;BME280;26097;42.366;23.818;2023-05-16T11:21:14;93644.88;;;18.24;100.00
40384;BME280;26097;42.366;23.818;2023-05-16T11:24:28;93640.03;;;18.04;100.00
40384;BME280;26097;42.366;23.818;2023-05-16T11:27:53;93638.09;;;18.30;100.00
40384;BME280;26097;42.366;23.818;2023-05-16T11:30:55;93652.16;;;18.68;100.00
40384;BME280;26097;42.366;23.818;2023-05-16T11:33:57;93660.19;;;18.98;100.00
40384;BME280;26097;42.366;23.818;2023-05-16T11:36:58;93655.09;;;18.74;100.00
40384;BME280;26097;42.366;23.818;2023-05-16T11:40:00;93666.06;;;18.62;100.00
40384;BME280;26097;42.366;23.818;2023-05-16T11:43:01;93678.31;;;18.55;100.00
40384;BME280;26097;42.366;23.818;2023-05-16T11:46:02;93651.00;;;18.48;100.00
40384;BME280;26097;42.366;23.818;2023-05-16T11:49:03;93655.56;;;18.54;100.00
40384;BME280;26097;42.366;23.818;2023-05-16T11:52:04;93662.41;;;18.63;100.00
40384;BME280;26097;42.366;23.818;2023-05-16T11:55:08;93646.00;;;19.15;100.00
40384;BME280;26097;42.366;23.818;2023-05-16T11:58:10;93643.03;;;19.33;100.00
40384;BME280;26097;42.366;23.818;2023-05-16T12:01:11;93643.81;;;19.03;100.00
40384;BME280;26097;42.366;23.818;2023-05-16T12:04:14;93653.84;;;19.23;100.00
40384;BME280;26097;42.366;23.818;2023-05-16T12:07:14;93636.09;;;19.92;100.00
40384;BME280;26097;42.366;23.818;2023-05-16T12:10:15;93601.88;;;20.05;100.00
40384;BME280;26097;42.366;23.818;2023-05-16T12:13:20;93582.25;;;19.84;100.00
40384;BME280;26097;42.366;23.818;2023-05-16T12:16:22;93582.06;;;20.01;100.00
40384;BME280;26097;42.366;23.818;2023-05-16T12:19:22;93588.03;;;20.25;93.44
40384;BME280;26097;42.366;23.818;2023-05-16T12:22:23;93570.22;;;20.84;92.73
40384;BME280;26097;42.366;23.818;2023-05-16T12:25:27;93581.22;;;21.16;91.72
40384;BME280;26097;42.366;23.818;2023-05-16T12:28:31;93562.81;;;20.51;87.54
40384;BME280;26097;42.366;23.818;2023-05-16T12:31:37;93569.44;;;20.18;93.32
40384;BME280;26097;42.366;23.818;2023-05-16T12:34:38;93560.59;;;20.11;100.00
40384;BME280;26097;42.366;23.818;2023-05-16T12:37:39;93560.59;;;20.54;97.50
40384;BME280;26097;42.366;23.818;2023-05-16T12:40:43;93562.16;;;20.71;91.96
40384;BME280;26097;42.366;23.818;2023-05-16T12:43:43;93567.47;;;20.49;93.13
40384;BME280;26097;42.366;23.818;2023-05-16T12:46:53;93574.84;;;20.32;99.80
40384;BME280;26097;42.366;23.818;2023-05-16T12:49:54;93580.88;;;19.37;100.00
40384;BME280;26097;42.366;23.818;2023-05-16T12:52:58;93576.38;;;18.77;100.00
40384;BME280;26097;42.366;23.818;2023-05-16T12:55:59;93558.69;;;18.78;100.00
40384;BME280;26097;42.366;23.818;2023-05-16T12:59:00;93555.88;;;18.79;100.00
40384;BME280;26097;42.366;23.818;2023-05-16T13:02:00;93569.34;;;18.69;100.00
40384;BME280;26097;42.366;23.818;2023-05-16T13:05:00;93573.47;;;18.49;100.00
40384;BME280;26097;42.366;23.818;2023-05-16T13:08:01;93569.41;;;18.61;100.00
40384;BME280;26097;42.366;23.818;2023-05-16T13:11:01;93569.88;;;18.65;100.00
40384;BME280;26097;42.366;23.818;2023-05-16T13:14:02;93564.50;;;18.35;100.00
40384;BME280;26097;42.366;23.818;2023-05-16T13:17:03;93550.00;;;18.16;100.00
40384;BME280;26097;42.366;23.818;2023-05-16T13:20:05;93547.09;;;18.02;100.00
40384;BME280;26097;42.366;23.818;2023-05-16T13:23:09;93549.03;;;17.77;100.00
40384;BME280;26097;42.366;23.818;2023-05-16T13:26:09;93540.72;;;17.65;100.00
40384;BME280;26097;42.366;23.818;2023-05-16T13:29:09;93561.56;;;17.51;100.00
40384;BME280;26097;42.366;23.818;2023-05-16T13:32:11;93563.00;;;17.54;100.00
40384;BME280;26097;42.366;23.818;2023-05-16T13:35:11;93567.69;;;17.35;100.00
40384;BME280;26097;42.366;23.818;2023-05-16T13:38:12;93573.31;;;17.32;100.00
40384;BME280;26097;42.366;23.818;2023-05-16T13:41:13;93572.59;;;16.98;100.00
40384;BME280;26097;42.366;23.818;2023-05-16T13:44:13;93591.03;;;16.90;100.00
40384;BME280;26097;42.366;23.818;2023-05-16T13:47:13;93593.03;;;16.63;100.00
40384;BME280;26097;42.366;23.818;2023-05-16T13:50:14;93602.88;;;16.69;100.00
40384;BME280;26097;42.366;23.818;2023-05-16T13:53:14;93595.47;;;16.73;100.00
40384;BME280;26097;42.366;23.818;2023-05-16T13:56:15;93597.31;;;16.48;100.00
40384;BME280;26097;42.366;23.818;2023-05-16T13:59:15;93600.59;;;16.17;100.00
40384;BME280;26097;42.366;23.818;2023-05-16T14:02:16;93614.69;;;15.99;100.00
40384;BME280;26097;42.366;23.818;2023-05-16T14:05:16;93608.38;;;15.83;100.00
40384;BME280;26097;42.366;23.818;2023-05-16T14:08:16;93612.00;;;15.74;100.00
40384;BME280;26097;42.366;23.818;2023-05-16T14:11:17;93622.78;;;15.63;100.00
40384;BME280;26097;42.366;23.818;2023-05-16T14:14:18;93624.41;;;15.64;100.00
40384;BME280;26097;42.366;23.818;2023-05-16T14:17:19;93623.16;;;15.76;100.00
40384;BME280;26097;42.366;23.818;2023-05-16T14:20:19;93625.53;;;15.96;100.00
40384;BME280;26097;42.366;23.818;2023-05-16T14:23:20;93614.56;;;16.09;100.00
40384;BME280;26097;42.366;23.818;2023-05-16T14:26:21;93606.50;;;16.19;100.00
40384;BME280;26097;42.366;23.818;2023-05-16T14:29:24;93611.94;;;16.25;100.00
40384;BME280;26097;42.366;23.818;2023-05-16T14:32:25;93621.94;;;16.30;100.00
40384;BME280;26097;42.366;23.818;2023-05-16T14:35:25;93621.94;;;16.30;100.00
40384;BME280;26097;42.366;23.818;2023-05-16T14:38:25;93634.63;;;16.35;100.00
40384;BME280;26097;42.366;23.818;2023-05-16T14:41:27;93633.47;;;16.37;100.00
40384;BME280;26097;42.366;23.818;2023-05-16T14:44:27;93608.16;;;16.28;100.00
40384;BME280;26097;42.366;23.818;2023-05-16T14:47:27;93624.94;;;16.35;100.00
40384;BME280;26097;42.366;23.818;2023-05-16T14:50:30;93612.13;;;16.32;100.00
40384;BME280;26097;42.366;23.818;2023-05-16T14:53:30;93613.09;;;16.31;100.00
40384;BME280;26097;42.366;23.818;2023-05-16T14:56:31;93600.44;;;16.35;100.00
40384;BME280;26097;42.366;23.818;2023-05-16T14:59:31;93597.00;;;16.34;100.00
40384;BME280;26097;42.366;23.818;2023-05-16T15:02:32;93600.44;;;16.51;100.00
40384;BME280;26097;42.366;23.818;2023-05-16T15:05:32;93598.94;;;16.49;100.00
40384;BME280;26097;42.366;23.818;2023-05-16T15:08:33;93604.38;;;16.55;100.00
40384;BME280;26097;42.366;23.818;2023-05-16T15:11:34;93609.16;;;16.52;100.00
40384;BME280;26097;42.366;23.818;2023-05-16T15:14:34;93601.25;;;16.44;100.00
40384;BME280;26097;42.366;23.818;2023-05-16T15:17:35;93604.38;;;16.39;100.00
40384;BME280;26097;42.366;23.818;2023-05-16T15:20:35;93597.31;;;16.39;100.00
40384;BME280;26097;42.366;23.818;2023-05-16T15:23:36;93597.97;;;16.41;100.00
40384;BME280;26097;42.366;23.818;2023-05-16T15:26:37;93588.13;;;16.35;100.00
40384;BME280;26097;42.366;23.818;2023-05-16T15:29:38;93593.38;;;16.35;100.00
40384;BME280;26097;42.366;23.818;2023-05-16T15:32:38;93587.78;;;16.38;100.00
40384;BME280;26097;42.366;23.818;2023-05-16T15:35:39;93589.91;;;16.35;100.00
40384;BME280;26097;42.366;23.818;2023-05-16T15:38:39;93584.16;;;16.23;100.00
40384;BME280;26097;42.366;23.818;2023-05-16T15:41:44;93587.13;;;16.11;100.00
40384;BME280;26097;42.366;23.818;2023-05-16T15:44:45;93594.97;;;16.03;100.00
40384;BME280;26097;42.366;23.818;2023-05-16T15:47:45;93601.56;;;15.99;100.00
40384;BME280;26097;42.366;23.818;2023-05-16T15:50:46;93607.72;;;15.81;100.00
40384;BME280;26097;42.366;23.818;2023-05-16T15:53:46;93614.91;;;15.63;100.00